createdAt,value
2018-11-29T00:01:27.299Z,98006.23
2018-11-29T00:03:58.431Z,98008.88
2018-11-29T00:06:29.501Z,98005.94
2018-11-29T00:09:01.026Z,98007.20
2018-11-29T00:11:32.263Z,98020.67
2018-11-29T00:14:03.475Z,98018.44
2018-11-29T00:16:34.983Z,98011.44
2018-11-29T00:19:06.747Z,98013.17
2018-11-29T00:21:37.869Z,98018.23
2018-11-29T00:24:09.088Z,98021.58
2018-11-29T00:26:40.751Z,98015.80
2018-11-29T00:29:11.979Z,98012.00
2018-11-29T00:31:43.222Z,97997.06
2018-11-29T00:34:14.314Z,97999.59
2018-11-29T00:36:45.779Z,98002.53
2018-11-29T00:39:16.969Z,97995.39
2018-11-29T00:41:48.166Z,97982.33
2018-11-29T00:44:19.428Z,97971.61
2018-11-29T00:46:50.635Z,97950.44
2018-11-29T00:49:21.782Z,97947.84
2018-11-29T00:51:52.998Z,97951.86
2018-11-29T00:54:24.223Z,97961.50
2018-11-29T00:56:55.755Z,97960.03
2018-11-29T00:59:26.880Z,97963.95
2018-11-29T01:02:00.816Z,97962.78
2018-11-29T01:04:32.562Z,97976.64
2018-11-29T01:07:03.884Z,97978.30
2018-11-29T01:09:35.200Z,97977.91
2018-11-29T01:12:06.814Z,97981.41
2018-11-29T01:14:38.366Z,97983.27
2018-11-29T01:17:09.699Z,97984.92
2018-11-29T01:19:41.042Z,97982.38
2018-11-29T01:22:12.232Z,97981.58
2018-11-29T01:24:43.985Z,97986.55
2018-11-29T01:27:15.408Z,97982.36
2018-11-29T01:29:46.692Z,97989.28
2018-11-29T01:32:18.213Z,97982.56
2018-11-29T01:34:49.734Z,97988.30
2018-11-29T01:37:21.758Z,97990.53
2018-11-29T01:39:53.264Z,97988.20
2018-11-29T01:42:24.402Z,97995.69
2018-11-29T01:44:55.857Z,97987.78
2018-11-29T01:47:27.351Z,97992.55
2018-11-29T01:49:58.621Z,97992.67
2018-11-29T01:52:29.812Z,97990.22
2018-11-29T01:55:00.969Z,97987.08
2018-11-29T01:57:32.515Z,97978.80
2018-11-29T02:00:03.888Z,97972.00
2018-11-29T02:02:35.078Z,97962.70
2018-11-29T02:05:07.519Z,97962.83
2018-11-29T02:07:38.761Z,97952.98
2018-11-29T02:10:28.544Z,97949.28
2018-11-29T02:12:59.481Z,97948.02
2018-11-29T02:15:30.950Z,97936.88
2018-11-29T02:18:01.889Z,97934.07
2018-11-29T02:20:32.816Z,97938.16
2018-11-29T02:23:03.739Z,97928.09
2018-11-29T02:25:34.576Z,97926.55
2018-11-29T02:31:52.016Z,97908.91
2018-11-29T02:34:22.961Z,97916.23
2018-11-29T02:36:54.227Z,97916.84
2018-11-29T02:39:25.170Z,97909.31
2018-11-29T02:41:56.040Z,97910.20
2018-11-29T02:44:26.987Z,97911.97
2018-11-29T02:46:58.378Z,97911.97
2018-11-29T02:49:29.265Z,97916.23
2018-11-29T02:52:00.374Z,97918.47
2018-11-29T02:54:31.772Z,97922.27
2018-11-29T02:57:02.828Z,97912.71
2018-11-29T02:59:33.925Z,97908.72
2018-11-29T03:02:04.983Z,97915.82
2018-11-29T03:04:35.846Z,97923.13
2018-11-29T03:07:06.967Z,97916.22
2018-11-29T03:09:37.926Z,97920.29
2018-11-29T03:12:08.899Z,97910.87
2018-11-29T03:14:39.754Z,97907.45
2018-11-29T03:17:10.804Z,97912.22
2018-11-29T03:19:41.987Z,97910.75
2018-11-29T03:22:12.942Z,97906.95
2018-11-29T03:24:43.783Z,97908.06
2018-11-29T03:27:15.071Z,97902.48
2018-11-29T03:29:46.600Z,97901.98
2018-11-29T03:32:17.654Z,97912.35
2018-11-29T03:34:49.744Z,97895.11
2018-11-29T03:37:20.612Z,97888.76
2018-11-29T03:39:51.632Z,97899.48
2018-11-29T03:42:22.577Z,97885.65
2018-11-29T03:44:53.822Z,97886.03
2018-11-29T03:47:24.742Z,97884.69
2018-11-29T03:49:55.580Z,97880.99
2018-11-29T03:52:26.560Z,97892.40
2018-11-29T03:54:57.556Z,97886.34
2018-11-29T03:57:28.494Z,97878.54
2018-11-29T03:59:59.358Z,97871.92
2018-11-29T04:02:30.298Z,97859.25
2018-11-29T04:05:01.145Z,97853.91
2018-11-29T04:07:32.323Z,97856.25
2018-11-29T04:10:03.362Z,97857.44
2018-11-29T04:12:34.418Z,97861.13
2018-11-29T04:15:05.527Z,97870.19
2018-11-29T04:17:40.599Z,97878.20
2018-11-29T04:20:11.340Z,97869.03
2018-11-29T04:22:42.406Z,97858.67
2018-11-29T04:25:17.182Z,97856.94
2018-11-29T04:27:48.240Z,97847.66
2018-11-29T04:30:19.420Z,97843.11
2018-11-29T04:32:50.652Z,97845.83
2018-11-29T04:35:21.761Z,97842.64
2018-11-29T04:37:52.962Z,97839.74
2018-11-29T04:40:24.001Z,97843.65
2018-11-29T04:42:55.338Z,97848.22
2018-11-29T04:45:34.085Z,97854.85
2018-11-29T04:48:09.992Z,97857.22
2018-11-29T04:50:36.913Z,97846.28
2018-11-29T04:53:07.966Z,97837.92
2018-11-29T04:55:38.871Z,97849.80
2018-11-29T04:58:10.073Z,97852.16
2018-11-29T05:00:41.220Z,97857.69
2018-11-29T05:03:12.344Z,97861.48
2018-11-29T05:05:43.456Z,97857.52
2018-11-29T05:08:14.387Z,97853.42
2018-11-29T05:10:45.431Z,97848.92
2018-11-29T05:13:16.287Z,97840.76
2018-11-29T05:15:47.165Z,97845.05
2018-11-29T05:18:18.001Z,97849.92
2018-11-29T05:20:49.001Z,97846.80
2018-11-29T05:23:19.857Z,97842.44
2018-11-29T05:25:50.738Z,97855.69
2018-11-29T05:28:21.593Z,97849.44
2018-11-29T05:30:52.797Z,97844.76
2018-11-29T05:33:23.871Z,97842.14
2018-11-29T05:35:54.760Z,97847.59
2018-11-29T05:38:25.600Z,97840.59
2018-11-29T05:40:56.928Z,97847.02
2018-11-29T05:43:27.954Z,97840.02
2018-11-29T05:45:59.055Z,97844.20
2018-11-29T05:48:30.393Z,97857.75
2018-11-29T05:51:01.314Z,97858.63
2018-11-29T05:53:32.900Z,97863.50
2018-11-29T05:56:04.166Z,97850.84
2018-11-29T05:58:35.266Z,97851.14
2018-11-29T06:01:12.085Z,97845.09
2018-11-29T06:03:42.917Z,97844.52
2018-11-29T06:06:13.935Z,97847.05
2018-11-29T06:08:44.782Z,97849.98
2018-11-29T06:11:15.751Z,97850.75
2018-11-29T06:13:46.690Z,97849.69
2018-11-29T06:16:17.506Z,97852.41
2018-11-29T06:18:48.512Z,97862.94
2018-11-29T06:21:19.630Z,97859.70
2018-11-29T06:23:50.599Z,97852.99
2018-11-29T06:26:21.548Z,97848.31
2018-11-29T06:28:52.495Z,97837.44
2018-11-29T06:31:23.434Z,97842.58
2018-11-29T06:33:54.570Z,97840.35
2018-11-29T06:36:25.752Z,97839.77
2018-11-29T06:38:56.835Z,97842.67
2018-11-29T06:41:27.714Z,97841.32
2018-11-29T06:43:59.055Z,97842.76
2018-11-29T06:46:29.894Z,97843.94
2018-11-29T06:49:00.905Z,97850.55
2018-11-29T06:51:31.837Z,97849.38
2018-11-29T06:54:02.674Z,97851.61
2018-11-29T06:56:33.834Z,97856.97
2018-11-29T06:59:04.861Z,97852.88
2018-11-29T07:01:35.913Z,97857.94
2018-11-29T07:04:07.183Z,97842.20
2018-11-29T07:06:38.350Z,97853.30
2018-11-29T07:09:10.672Z,97860.30
2018-11-29T07:11:41.733Z,97855.83
2018-11-29T07:14:12.567Z,97854.14
2018-11-29T07:16:44.017Z,97855.23
2018-11-29T07:19:15.126Z,97849.50
2018-11-29T07:21:58.432Z,97852.33
2018-11-29T07:24:29.443Z,97850.38
2018-11-29T07:27:00.730Z,97850.38
2018-11-29T07:29:31.831Z,97849.11
2018-11-29T07:32:02.860Z,97850.97
2018-11-29T07:34:33.778Z,97851.73
2018-11-29T07:37:04.637Z,97848.42
2018-11-29T07:39:35.724Z,97847.36
2018-11-29T07:42:06.899Z,97847.53
2018-11-29T07:44:37.766Z,97852.30
2018-11-29T07:47:08.704Z,97840.05
2018-11-29T07:49:39.626Z,97839.34
2018-11-29T07:52:11.017Z,97834.14
2018-11-29T07:54:42.165Z,97830.88
2018-11-29T07:57:13.103Z,97830.98
2018-11-29T07:59:44.124Z,97830.85
2018-11-29T08:02:15.309Z,97815.45
2018-11-29T08:04:46.493Z,97827.54
2018-11-29T08:07:17.778Z,97830.72
2018-11-29T08:09:48.646Z,97811.45
2018-11-29T08:12:19.872Z,97808.55
2018-11-29T08:14:50.913Z,97805.67
2018-11-29T08:17:22.114Z,97789.51
2018-11-29T08:19:53.055Z,97785.16
2018-11-29T08:22:23.983Z,97796.59
2018-11-29T08:24:55.099Z,97788.80
2018-11-29T08:27:25.966Z,97796.92
2018-11-29T08:29:56.992Z,97800.17
2018-11-29T08:32:28.113Z,97800.33
2018-11-29T08:34:59.320Z,97796.33
2018-11-29T08:37:30.228Z,97795.39
2018-11-29T08:40:01.207Z,97796.27
2018-11-29T08:42:32.154Z,97790.55
2018-11-29T08:45:03.115Z,97797.70
2018-11-29T08:47:34.046Z,97785.44
2018-11-29T08:50:05.429Z,97787.25
2018-11-29T08:52:36.412Z,97778.99
2018-11-29T08:55:11.780Z,97764.23
2018-11-29T08:57:43.080Z,97771.75
2018-11-29T09:00:16.108Z,97765.30
2018-11-29T09:02:47.241Z,97758.31
2018-11-29T09:05:18.405Z,97758.97
2018-11-29T09:07:50.482Z,97743.53
2018-11-29T09:10:31.366Z,97740.70
2018-11-29T09:12:57.542Z,97740.52
2018-11-29T09:15:28.831Z,97745.92
2018-11-29T09:17:59.860Z,97751.87
2018-11-29T09:20:31.158Z,97745.21
2018-11-29T09:23:02.383Z,97738.52
2018-11-29T09:25:33.224Z,97741.94
2018-11-29T09:28:04.182Z,97741.83
2018-11-29T09:30:35.277Z,97742.58
2018-11-29T09:33:06.451Z,97738.20
2018-11-29T09:35:37.498Z,97733.83
2018-11-29T09:38:08.464Z,97730.17
2018-11-29T09:40:39.676Z,97727.36
2018-11-29T09:43:10.699Z,97723.35
2018-11-29T09:45:42.008Z,97715.17
2018-11-29T09:48:12.835Z,97708.13
2018-11-29T09:50:43.793Z,97710.49
2018-11-29T09:53:14.824Z,97709.15
2018-11-29T09:55:45.894Z,97711.91
2018-11-29T09:58:16.747Z,97710.27
2018-11-29T10:00:48.031Z,97701.86
2018-11-29T10:03:19.386Z,97696.84
2018-11-29T10:05:50.415Z,97697.16
2018-11-29T10:08:26.065Z,97696.67
2018-11-29T10:10:53.212Z,97693.56
2018-11-29T10:13:24.063Z,97684.07
2018-11-29T10:15:55.352Z,97674.14
2018-11-29T10:18:26.288Z,97687.16
2018-11-29T10:20:57.245Z,97683.91
2018-11-29T10:23:28.171Z,97690.18
2018-11-29T10:25:59.035Z,97695.59
2018-11-29T10:28:29.876Z,97694.08
2018-11-29T10:31:03.117Z,97687.48
2018-11-29T10:33:34.206Z,97684.44
2018-11-29T10:36:05.808Z,97674.50
2018-11-29T10:38:36.926Z,97673.25
2018-11-29T10:41:08.346Z,97676.59
2018-11-29T10:43:39.187Z,97662.40
2018-11-29T10:46:10.422Z,97658.95
2018-11-29T10:48:41.754Z,97665.64
2018-11-29T10:51:12.701Z,97659.84
2018-11-29T10:53:43.685Z,97662.41
2018-11-29T10:56:14.526Z,97650.16
2018-11-29T10:58:45.555Z,97652.70
2018-11-29T11:01:45.958Z,97644.30
2018-11-29T11:04:16.993Z,97638.91
2018-11-29T11:06:47.830Z,97627.44
2018-11-29T11:09:18.850Z,97624.67
2018-11-29T11:11:49.888Z,97614.95
2018-11-29T11:14:20.752Z,97611.14
2018-11-29T11:16:51.870Z,97605.00
2018-11-29T11:19:22.809Z,97606.31
2018-11-29T11:21:53.737Z,97595.73
2018-11-29T11:24:24.583Z,97600.77
2018-11-29T11:26:55.486Z,97602.17
2018-11-29T11:29:26.301Z,97594.10
2018-11-29T11:31:57.326Z,97590.66
2018-11-29T11:34:28.182Z,97601.34
2018-11-29T11:36:59.271Z,97604.15
2018-11-29T11:39:30.547Z,97592.98
2018-11-29T11:42:01.586Z,97583.05
2018-11-29T11:44:32.526Z,97588.99
2018-11-29T11:47:03.654Z,97580.43
2018-11-29T11:49:34.547Z,97575.15
2018-11-29T11:52:05.935Z,97567.89
2018-11-29T11:54:37.141Z,97572.05
2018-11-29T11:57:08.287Z,97566.16
2018-11-29T11:59:39.137Z,97556.66
2018-11-29T12:02:10.178Z,97544.44
2018-11-29T12:04:41.565Z,97534.59
2018-11-29T12:07:12.793Z,97530.24
2018-11-29T12:09:44.364Z,97530.24
2018-11-29T12:12:15.407Z,97523.43
2018-11-29T12:14:46.526Z,97521.22
2018-11-29T12:17:17.601Z,97513.81
2018-11-29T12:19:48.557Z,97515.73
2018-11-29T12:22:19.500Z,97517.13
2018-11-29T12:24:50.549Z,97527.10
2018-11-29T12:27:21.565Z,97520.83
2018-11-29T12:29:52.954Z,97524.07
2018-11-29T12:32:23.815Z,97516.97
2018-11-29T12:34:54.776Z,97518.70
2018-11-29T12:37:25.710Z,97526.17
2018-11-29T12:39:56.641Z,97529.89
2018-11-29T12:42:27.686Z,97522.06
2018-11-29T12:44:58.564Z,97523.28
2018-11-29T12:47:29.599Z,97529.09
2018-11-29T12:50:00.628Z,97528.25
2018-11-29T12:52:31.673Z,97513.48
2018-11-29T12:55:02.684Z,97511.50
2018-11-29T12:57:33.621Z,97507.00
2018-11-29T13:00:04.738Z,97500.83
2018-11-29T13:02:35.763Z,97493.87
2018-11-29T13:05:09.257Z,97495.99
2018-11-29T13:07:43.319Z,97485.87
2018-11-29T13:10:12.753Z,97485.78
2018-11-29T13:12:43.874Z,97474.86
2018-11-29T13:15:25.695Z,97474.48
2018-11-29T13:17:57.949Z,97457.14
2018-11-29T13:20:32.441Z,97466.94
2018-11-29T13:23:01.116Z,97468.52
2018-11-29T13:25:32.182Z,97468.94
2018-11-29T13:28:03.026Z,97469.63
2018-11-29T13:30:33.983Z,97463.84
2018-11-29T13:33:05.033Z,97461.98
2018-11-29T13:35:36.936Z,97452.79
2018-11-29T13:38:15.432Z,97444.45
2018-11-29T13:40:51.148Z,97449.79
2018-11-29T13:43:22.082Z,97454.23
2018-11-29T13:45:53.132Z,97449.67
2018-11-29T13:48:24.257Z,97448.94
2018-11-29T13:50:55.464Z,97451.73
2018-11-29T13:53:26.400Z,97449.19
2018-11-29T13:55:57.341Z,97449.49
2018-11-29T13:58:28.190Z,97450.05
2018-11-29T14:00:59.245Z,97455.59
2018-11-29T14:03:30.077Z,97442.33
2018-11-29T14:06:01.361Z,97438.12
2018-11-29T14:08:32.296Z,97432.34
2018-11-29T14:11:03.421Z,97442.64
2018-11-29T14:13:34.441Z,97449.33
2018-11-29T14:16:05.590Z,97445.43
2018-11-29T14:18:36.959Z,97442.88
2018-11-29T14:21:08.141Z,97437.86
2018-11-29T14:23:38.987Z,97431.90
2018-11-29T14:26:09.949Z,97425.48
2018-11-29T14:28:40.756Z,97428.11
2018-11-29T14:31:11.689Z,97438.18
2018-11-29T14:33:42.539Z,97441.78
2018-11-29T14:36:13.574Z,97440.68
2018-11-29T14:38:44.519Z,97441.11
2018-11-29T14:41:15.467Z,97443.16
2018-11-29T14:43:46.639Z,97442.55
2018-11-29T14:46:17.610Z,97430.84
2018-11-29T14:48:48.526Z,97428.08
2018-11-29T14:51:19.463Z,97416.00
2018-11-29T14:53:50.333Z,97412.06
2018-11-29T14:56:21.549Z,97411.73
2018-11-29T14:58:52.411Z,97409.16
2018-11-29T15:01:23.247Z,97425.83
2018-11-29T15:03:54.367Z,97435.20
2018-11-29T15:06:25.612Z,97435.77
2018-11-29T15:08:56.453Z,97437.30
2018-11-29T15:11:29.366Z,97431.89
2018-11-29T15:13:59.292Z,97437.63
2018-11-29T15:16:30.391Z,97439.70
2018-11-29T15:19:01.347Z,97433.13
2018-11-29T15:21:32.380Z,97430.04
2018-11-29T15:24:03.420Z,97433.55
2018-11-29T15:26:34.269Z,97435.20
2018-11-29T15:29:05.400Z,97437.30
2018-11-29T15:31:36.617Z,97435.20
2018-11-29T15:34:07.905Z,97446.63
2018-11-29T15:36:38.852Z,97436.17
2018-11-29T15:39:10.927Z,97445.23
2018-11-29T15:41:41.852Z,97438.80
2018-11-29T15:44:12.705Z,97434.75
2018-11-29T15:46:43.665Z,97430.00
2018-11-29T15:49:14.760Z,97423.74
2018-11-29T15:51:45.722Z,97418.44
2018-11-29T15:54:16.739Z,97429.59
2018-11-29T15:56:47.679Z,97426.05
2018-11-29T15:59:18.797Z,97421.14
2018-11-29T16:01:49.807Z,97411.61
2018-11-29T16:04:20.852Z,97424.05
2018-11-29T16:06:51.796Z,97429.23
2018-11-29T16:09:22.991Z,97419.64
2018-11-29T16:11:54.139Z,97417.48
2018-11-29T16:14:25.094Z,97412.73
2018-11-29T16:16:56.027Z,97427.02
2018-11-29T16:19:27.233Z,97424.77
2018-11-29T16:21:58.355Z,97432.56
2018-11-29T16:24:29.411Z,97438.91
2018-11-29T16:27:00.362Z,97445.63
2018-11-29T16:29:31.333Z,97450.40
2018-11-29T16:32:02.380Z,97442.47
2018-11-29T16:34:33.420Z,97434.94
2018-11-29T16:37:04.586Z,97441.57
2018-11-29T16:39:35.661Z,97439.59
2018-11-29T16:42:06.808Z,97434.60
2018-11-29T16:44:38.007Z,97436.67
2018-11-29T16:47:09.170Z,97440.64
2018-11-29T16:49:40.635Z,97440.25
2018-11-29T16:52:11.574Z,97432.94
2018-11-29T16:54:42.556Z,97424.55
2018-11-29T16:57:13.836Z,97421.69
2018-11-29T16:59:45.367Z,97419.88
2018-11-29T17:02:16.600Z,97414.48
2018-11-29T17:04:47.672Z,97424.47
2018-11-29T17:07:19.122Z,97411.78
2018-11-29T17:09:50.071Z,97415.20
2018-11-29T17:12:24.198Z,97412.42
2018-11-29T17:14:55.424Z,97406.23
2018-11-29T17:17:26.714Z,97414.34
2018-11-29T17:19:57.771Z,97419.73
2018-11-29T17:22:28.723Z,97426.36
2018-11-29T17:24:59.666Z,97421.37
2018-11-29T17:27:30.836Z,97416.79
2018-11-29T17:30:02.034Z,97420.10
2018-11-29T17:32:32.991Z,97412.04
2018-11-29T17:35:04.065Z,97410.59
2018-11-29T17:37:34.996Z,97420.02
2018-11-29T17:40:16.559Z,97414.47
2018-11-29T17:42:47.612Z,97411.07
2018-11-29T17:45:20.416Z,97408.14
2018-11-29T17:47:52.866Z,97409.73
2018-11-29T17:50:37.620Z,97412.73
2018-11-29T17:53:09.363Z,97399.75
2018-11-29T17:55:40.611Z,97398.45
2018-11-29T17:58:18.111Z,97399.03
2018-11-29T18:00:51.636Z,97388.63
2018-11-29T18:03:25.637Z,97380.08
2018-11-29T18:05:56.549Z,97363.27
2018-11-29T18:08:27.421Z,97375.73
2018-11-29T18:10:59.545Z,97372.31
2018-11-29T18:13:36.640Z,97369.95
2018-11-29T18:16:08.011Z,97367.86
2018-11-29T18:18:38.885Z,97355.50
2018-11-29T18:21:09.846Z,97356.16
2018-11-29T18:23:40.845Z,97368.67
2018-11-29T18:26:11.784Z,97353.13
2018-11-29T18:28:42.733Z,97350.27
2018-11-29T18:31:13.586Z,97363.18
2018-11-29T18:33:44.778Z,97362.63
2018-11-29T18:36:15.722Z,97364.94
2018-11-29T18:38:46.929Z,97369.75
2018-11-29T18:41:17.892Z,97378.56
2018-11-29T18:43:49.023Z,97368.19
2018-11-29T18:46:20.128Z,97371.34
2018-11-29T18:48:51.177Z,97357.39
2018-11-29T18:51:22.385Z,97349.55
2018-11-29T18:53:53.582Z,97337.09
2018-11-29T18:56:24.539Z,97328.70
2018-11-29T18:58:55.404Z,97316.97
2018-11-29T19:01:26.601Z,97314.92
2018-11-29T19:03:57.551Z,97312.71
2018-11-29T19:06:28.671Z,97312.71
2018-11-29T19:08:59.597Z,97304.78
2018-11-29T19:11:31.111Z,97310.80
2018-11-29T19:14:02.209Z,97315.09
2018-11-29T19:16:33.070Z,97324.74
2018-11-29T19:19:03.960Z,97329.03
2018-11-29T19:21:59.088Z,97333.84
2018-11-29T19:25:43.666Z,97328.22
2018-11-29T19:28:24.298Z,97332.25
2018-11-29T19:36:31.139Z,97336.38
2018-11-29T19:39:52.913Z,97339.80
2018-11-29T19:46:57.458Z,97351.67
2018-11-29T19:53:08.319Z,97354.59
2018-11-29T19:55:39.276Z,97372.61
2018-11-29T19:58:10.561Z,97364.52
2018-11-29T20:00:41.818Z,97372.19
2018-11-29T20:03:12.887Z,97367.87
2018-11-29T20:05:44.110Z,97368.32
2018-11-29T20:08:15.053Z,97362.59
2018-11-29T20:10:46.031Z,97364.06
2018-11-29T20:13:17.983Z,97365.17
2018-11-29T20:15:54.733Z,97359.77
2018-11-29T20:18:25.668Z,97368.71
2018-11-29T20:20:56.618Z,97361.81
2018-11-29T20:23:27.468Z,97362.92
2018-11-29T20:25:58.509Z,97343.44
2018-11-29T20:28:29.476Z,97337.27
2018-11-29T20:31:00.568Z,97328.13
2018-11-29T20:33:31.414Z,97312.84
2018-11-29T20:36:02.367Z,97295.25
2018-11-29T20:38:33.531Z,97310.80
2018-11-29T20:41:04.729Z,97313.48
2018-11-29T20:43:35.720Z,97331.57
2018-11-29T20:46:07.184Z,97326.40
2018-11-29T20:48:38.373Z,97334.20
2018-11-29T20:51:09.422Z,97336.97
2018-11-29T20:53:41.716Z,97327.99
2018-11-29T20:56:15.293Z,97307.77
2018-11-29T20:58:46.583Z,97319.22
2018-11-29T21:01:17.644Z,97324.28
2018-11-29T21:03:48.585Z,97327.77
2018-11-29T21:06:19.535Z,97329.48
2018-11-29T21:08:50.437Z,97340.42
2018-11-29T21:11:21.448Z,97332.87
2018-11-29T21:13:52.555Z,97340.19
2018-11-29T21:16:23.836Z,97331.86
2018-11-29T21:18:54.676Z,97328.84
2018-11-29T21:21:25.701Z,97329.09
2018-11-29T21:23:56.624Z,97309.69
2018-11-29T21:26:27.744Z,97302.53
2018-11-29T21:28:58.936Z,97307.80
2018-11-29T21:31:30.224Z,97291.93
2018-11-29T21:34:01.490Z,97285.80
2018-11-29T21:36:32.716Z,97272.14
2018-11-29T21:39:04.635Z,97269.92
2018-11-29T21:41:35.581Z,97270.19
2018-11-29T21:44:06.956Z,97269.64
2018-11-29T21:46:38.285Z,97286.19
2018-11-29T21:49:09.244Z,97274.16
2018-11-29T21:51:40.151Z,97273.11
2018-11-29T21:54:11.005Z,97262.52
2018-11-29T21:56:41.942Z,97275.65
2018-11-29T21:59:13.175Z,97269.15
2018-11-29T22:01:44.415Z,97261.09
2018-11-29T22:04:15.246Z,97274.09
2018-11-29T22:06:46.110Z,97270.91
2018-11-29T22:09:17.065Z,97275.09
2018-11-29T22:11:48.023Z,97260.76
2018-11-29T22:14:19.271Z,97260.44
2018-11-29T22:16:50.574Z,97262.52
2018-11-29T22:19:21.421Z,97255.30
2018-11-29T22:21:52.400Z,97251.92
2018-11-29T22:24:23.577Z,97255.34
2018-11-29T22:26:54.770Z,97261.61
2018-11-29T22:29:25.827Z,97260.50
2018-11-29T22:31:56.877Z,97266.67
2018-11-29T22:34:27.736Z,97262.55
2018-11-29T22:36:58.864Z,97257.34
2018-11-29T22:39:30.057Z,97259.39
2018-11-29T22:42:01.143Z,97267.00
2018-11-29T22:47:05.995Z,97261.67
2018-11-29T22:49:37.109Z,97268.59
2018-11-29T22:52:08.487Z,97268.59
2018-11-29T22:54:39.452Z,97274.12
2018-11-29T22:57:10.492Z,97273.08
2018-11-29T22:59:41.447Z,97278.31
2018-11-29T23:02:12.911Z,97284.58
2018-11-29T23:04:44.560Z,97272.36
2018-11-29T23:07:16.001Z,97271.58
2018-11-29T23:09:47.114Z,97270.02
2018-11-29T23:12:24.776Z,97261.44
2018-11-29T23:14:56.281Z,97270.63
2018-11-29T23:17:27.294Z,97273.17
2018-11-29T23:19:58.876Z,97276.97
2018-11-29T23:22:29.883Z,97279.52
2018-11-29T23:25:01.131Z,97270.80
2018-11-29T23:27:32.304Z,97273.08
2018-11-29T23:30:03.740Z,97267.77
2018-11-29T23:32:34.997Z,97268.42
2018-11-29T23:35:06.597Z,97270.31
2018-11-29T23:37:38.020Z,97263.69
2018-11-29T23:40:21.775Z,97271.58
2018-11-29T23:42:52.947Z,97276.34
2018-11-29T23:45:24.284Z,97277.61
2018-11-29T23:47:55.690Z,97276.67
2018-11-29T23:50:26.812Z,97285.22
2018-11-29T23:52:57.806Z,97287.92
2018-11-29T23:55:28.914Z,97276.84
2018-11-29T23:58:00.348Z,97273.58
